Flight Track Log - Related Links

Times and Time Zones

All times are in EDT time to prevent confusion due to time zone crossing. See the CSN6337 flight status page for this flight to view local times or setup timezone preferences in your user account.

Time Position Orientation Groundspeed Altitude Reporting Facility
EDT Latitude Longitude Course Direction KTS MPH feet Rate Location/Type
Sat 02:21:00 AM 39.0580 121.6557 45° Northeast  Level Estimated
Sat 02:22:00 AM 39.1503 121.7731 45° Northeast  Level Estimated
Sat 02:23:00 AM 39.2425 121.8908 45° Northeast  Level Estimated
Sat 02:24:00 AM 39.3345 122.0088 45° Northeast  Level Estimated
Sat 02:25:00 AM 39.4264 122.1272 45° Northeast  Level Estimated
Sat 02:26:00 AM 39.5182 122.2458 45° Northeast  Level Estimated
Sat 02:27:00 AM 39.6098 122.3647 45° Northeast  Level Estimated
Sat 02:28:00 AM 39.7014 122.4840 45° Northeast  Level Estimated
Sat 02:29:00 AM 39.7928 122.6036 45° Northeast  Level Estimated
Sat 02:30:00 AM 39.8841 122.7235 45° Northeast  Level Estimated
Sat 02:31:00 AM 39.9753 122.8437 45° Northeast  Level Estimated
Sat 02:32:00 AM 40.0663 122.9643 45° Northeast  Level Estimated
Sat 02:33:00 AM 40.1572 123.0851 45° Northeast  Level Estimated
Sat 02:34:00 AM 40.2480 123.2063 46° Northeast  Level Estimated
Sat 02:35:00 AM 40.3387 123.3278 46° Northeast  Level Estimated
Sat 02:36:00 AM 40.4292 123.4497 46° Northeast  Level Estimated
Sat 02:37:00 AM 40.5196 123.5719 46° Northeast  Level Estimated
Sat 02:38:00 AM 40.6099 123.6944 46° Northeast  Level Estimated
Sat 02:39:00 AM 40.7001 123.8172 46° Northeast  Level Estimated
Sat 02:40:00 AM 40.7901 123.9403 46° Northeast  Level Estimated
Sat 02:41:00 AM 40.8800 124.0638 46° Northeast  Level Estimated
Sat 02:42:00 AM 40.9698 124.1877 46° Northeast  Level Estimated
Sat 02:43:00 AM 41.0594 124.3118 46° Northeast  Level Estimated
Sat 02:44:00 AM 41.1489 124.4363 46° Northeast  Level Estimated
Sat 02:45:00 AM 41.2383 124.5612 46° Northeast  Level Estimated
Sat 02:46:00 AM 41.3275 124.6864 46° Northeast  Level Estimated
Sat 02:47:00 AM 41.4166 124.8119 47° Northeast  Level Estimated
Sat 02:48:00 AM 41.5055 124.9378 47° Northeast  Level Estimated
Sat 02:49:00 AM 41.5944 125.0640 47° Northeast  Level Estimated
Sat 02:50:00 AM 41.6830 125.1906 47° Northeast  Level Estimated
Sat 02:51:00 AM 41.7716 125.3175 47° Northeast  Level Estimated
Sat 02:52:00 AM 41.8600 125.4448 47° Northeast  Level Estimated
Sat 02:53:00 AM 41.9482 125.5724 47° Northeast  Level Estimated
Sat 02:54:00 AM 42.0364 125.7004 47° Northeast  Level Estimated
Sat 02:55:00 AM 42.1243 125.8287 47° Northeast  Level Estimated
Sat 02:56:00 AM 42.2122 125.9574 47° Northeast  Level Estimated
Sat 02:57:00 AM 42.2998 126.0865 47° Northeast  Level Estimated
Sat 02:58:00 AM 42.3874 126.2159 47° Northeast  Level Estimated
Sat 02:59:00 AM 42.4748 126.3457 48° Northeast  Level Estimated
Sat 03:00:00 AM 42.5620 126.4758 48° Northeast  Level Estimated
Sat 03:01:00 AM 42.6491 126.6063 48° Northeast  Level Estimated
Sat 03:02:00 AM 42.7361 126.7372 48° Northeast  Level Estimated
Sat 03:03:00 AM 42.8229 126.8684 48° Northeast  Level Estimated
Sat 03:04:00 AM 42.9095 127.0000 48° Northeast  Level Estimated
Sat 03:05:00 AM 42.9960 127.1320 48° Northeast  Level Estimated
Sat 03:06:00 AM 43.0824 127.2643 48° Northeast  Level Estimated
Sat 03:07:00 AM 43.1686 127.3970 48° Northeast  Level Estimated
Sat 03:08:00 AM 43.2546 127.5301 48° Northeast  Level Estimated
Sat 03:09:00 AM 43.3405 127.6636 48° Northeast  Level Estimated
Sat 03:10:00 AM 43.4262 127.7974 49° Northeast  Level Estimated
Sat 03:11:00 AM 43.5118 127.9316 49° Northeast  Level Estimated
Sat 03:12:00 AM 43.5972 128.0662 49° Northeast  Level Estimated
Sat 03:13:00 AM 43.6825 128.2012 49° Northeast  Level Estimated
Sat 03:14:00 AM 43.7676 128.3366 49° Northeast  Level Estimated
Sat 03:15:00 AM 43.8525 128.4723 49° Northeast  Level Estimated
Sat 03:16:00 AM 43.9373 128.6084 49° Northeast  Level Estimated
Sat 03:17:00 AM 44.0219 128.7450 49° Northeast  Level Estimated
Sat 03:18:00 AM 44.1063 128.8819 49° Northeast  Level Estimated
Sat 03:19:00 AM 44.1906 129.0192 49° Northeast  Level Estimated
Sat 03:20:00 AM 44.2748 129.1569 50° Northeast  Level Estimated
Sat 03:21:00 AM 44.3587 129.2950 50° Northeast  Level Estimated
Sat 03:22:00 AM 44.4425 129.4335 50° Northeast  Level Estimated
Sat 03:23:00 AM 44.5241 129.5690 50° Northeast  Level Estimated
Sat 03:24:00 AM 44.5241 129.5690 35° Northeast  Level Estimated
Sat 03:25:00 AM 44.5241 129.5690 35° Northeast  Level Estimated
Sat 03:26:00 AM 44.5241 129.5690 35° Northeast  Level Estimated
Sat 03:27:00 AM 44.5241 129.5690 35° Northeast  Level Estimated
Sat 03:28:00 AM 44.5241 129.5690 35° Northeast  Level Estimated
Sat 03:29:00 AM 44.5241 129.5690 35° Northeast  Level Estimated
Sat 03:30:00 AM 44.5241 129.5690 35° Northeast  Level Estimated
Sat 03:31:00 AM 44.5241 129.5690 35° Northeast  Level Estimated
Sat 03:32:00 AM 44.5241 129.5690 35° Northeast  Level Estimated
Sat 03:33:00 AM 44.5241 129.5690 35° Northeast  Level Estimated
Sat 03:34:00 AM 44.5241 129.5690 35° Northeast  Level Estimated
Sat 03:35:00 AM 44.5241 129.5690 35° Northeast  Level Estimated
Sat 03:36:00 AM 44.5241 129.5690 35° Northeast  Level Estimated
Sat 03:37:00 AM 44.5241 129.5690 35° Northeast  Level Estimated
Sat 03:38:00 AM 44.5241 129.5690 35° Northeast  Level Estimated
Sat 03:39:00 AM 44.5241 129.5690 35° Northeast  Level Estimated

Login

Don't have an account? Register now (free) for customized features, flight alerts, and more!